Time;durP1;ratioP1;P1;durP2;ratioP2;P2;SDS_P1;SDS_P2;PMS_P1;PMS_P2;Temp;Humidity;BMP_temperature;BMP_pressure;BME280_temperature;BME280_humidity;BME280_pressure;Samples;Min_cycle;Max_cycle;Signal;HPM_P1;HPM_P2
2023/11/15 00:09:29;;;;;;;4.50;2.50;;;;;;;-147.20;100.00;63046.97;31551504;28;20029;-72
2023/11/15 00:24:29;;;;;;;8.18;2.78;;;;;;;-147.20;100.00;63046.97;31550083;28;20494;-65
2023/11/15 00:39:30;;;;;;;4.28;1.73;;;;;;;-147.20;100.00;63046.97;31547395;28;20238;-65
2023/11/15 00:54:30;;;;;;;3.15;1.60;;;;;;;-147.20;100.00;63046.97;31547023;28;20064;-65
2023/11/15 01:09:33;;;;;;;3.75;1.55;;;;;;;-147.20;100.00;63046.97;31545497;28;20557;-62
2023/11/15 01:24:34;;;;;;;1.03;0.83;;;;;;;-147.20;100.00;63046.97;31543847;28;20033;-69
2023/11/15 01:39:34;;;;;;;0.88;0.70;;;;;;;-147.20;100.00;63046.97;31542979;28;20540;-64
2023/11/15 01:54:35;;;;;;;2.03;0.73;;;;;;;-147.20;100.00;63046.97;31540099;28;20452;-67
2023/11/15 02:09:36;;;;;;;3.47;0.80;;;;;;;-147.20;100.00;63046.97;31540727;28;20033;-60
2023/11/15 02:24:37;;;;;;;0.95;0.70;;;;;;;-147.20;100.00;63046.97;31538571;28;20088;-60
2023/11/15 02:39:37;;;;;;;2.05;0.90;;;;;;;-147.20;100.00;63046.97;31537509;28;20044;-60
2023/11/15 02:54:37;;;;;;;2.22;0.77;;;;;;;-147.20;100.00;63046.97;31540081;28;20382;-67
2023/11/15 03:09:38;;;;;;;0.60;0.60;;;;;;;-147.20;100.00;63046.97;31557137;28;20925;-61
2023/11/15 03:24:38;;;;;;;1.83;1.10;;;;;;;-147.20;100.00;63046.97;31556967;28;20091;-60
2023/11/15 03:39:39;;;;;;;1.88;1.40;;;;;;;-147.20;100.00;63046.97;31554889;28;20083;-61
2023/11/15 03:54:39;;;;;;;4.13;1.80;;;;;;;-147.20;100.00;63046.97;31550737;28;20072;-62
2023/11/15 04:09:40;;;;;;;5.30;2.67;;;;;;;-147.20;100.00;63046.97;31550788;28;20021;-62
2023/11/15 04:24:40;;;;;;;3.63;2.03;;;;;;;-147.20;100.00;63046.97;31548208;28;20025;-65
2023/11/15 04:39:41;;;;;;;2.63;1.35;;;;;;;-147.20;100.00;63046.97;31545796;28;20371;-63
2023/11/15 04:54:41;;;;;;;2.75;1.40;;;;;;;-147.20;100.00;63046.97;31544475;28;20048;-62
2023/11/15 05:09:41;;;;;;;1.52;0.93;;;;;;;-147.20;100.00;63046.97;31544360;28;20021;-61
2023/11/15 05:24:42;;;;;;;2.90;1.40;;;;;;;-147.20;100.00;63046.97;31539570;28;20035;-61
2023/11/15 05:39:43;;;;;;;3.05;1.20;;;;;;;-147.20;100.00;63046.97;31539492;28;20036;-62
2023/11/15 05:54:44;;;;;;;3.78;1.33;;;;;;;-147.20;100.00;63046.97;31535134;28;20049;-64
2023/11/15 06:09:49;;;;;;;2.90;1.17;;;;;;;-147.20;100.00;63046.97;31533797;28;20496;-65
2023/11/15 06:24:52;;;;;;;2.03;1.35;;;;;;;-147.20;100.00;63046.97;31534075;28;20183;-62
2023/11/15 06:39:52;;;;;;;2.13;1.33;;;;;;;-147.20;100.00;63046.97;31533822;28;20490;-63
2023/11/15 06:54:53;;;;;;;2.00;1.30;;;;;;;-147.20;100.00;63046.97;31530005;28;20187;-62
2023/11/15 07:09:54;;;;;;;1.80;1.55;;;;;;;-147.20;100.00;63046.97;31530133;28;20382;-64
2023/11/15 07:24:55;;;;;;;5.20;1.95;;;;;;;-147.20;100.00;63046.97;31530094;28;20037;-63
2023/11/15 07:39:55;;;;;;;2.30;1.80;;;;;;;-147.20;100.00;63046.97;31531979;28;20411;-69
2023/11/15 07:54:56;;;;;;;3.65;1.75;;;;;;;-147.20;100.00;63046.97;31547882;28;20852;-63
2023/11/15 08:09:56;;;;;;;5.03;2.22;;;;;;;-147.20;100.00;63046.97;31547697;28;20079;-63
2023/11/15 08:24:59;;;;;;;2.65;1.48;;;;;;;-147.20;100.00;63046.97;31545789;28;20088;-64
2023/11/15 08:40:00;;;;;;;3.38;1.70;;;;;;;-147.20;100.00;63046.97;31543311;28;20075;-62
2023/11/15 08:55:01;;;;;;;2.72;1.42;;;;;;;-147.20;100.00;63046.97;31538480;28;21424;-63
2023/11/15 09:10:02;;;;;;;2.28;1.33;;;;;;;-147.20;100.00;63046.97;31541229;28;20062;-62
2023/11/15 09:25:02;;;;;;;3.45;1.35;;;;;;;-147.20;100.00;63046.97;31539007;28;20054;-62
2023/11/15 09:40:10;;;;;;;2.75;1.60;;;;;;;-147.20;100.00;63046.97;31537534;28;20021;-62
2023/11/15 09:55:10;;;;;;;1.55;1.10;;;;;;;-147.20;100.00;63046.97;31536538;28;20136;-63
2023/11/15 10:10:24;;;;;;;2.35;1.13;;;;;;;-147.20;100.00;63046.97;31535567;28;20040;-66
2023/11/15 10:25:27;;;;;;;2.42;1.23;;;;;;;-147.20;100.00;63046.97;31534085;28;20029;-67
2023/11/15 10:40:30;;;;;;;1.90;0.93;;;;;;;-147.20;100.00;63046.97;31532503;28;20127;-64
2023/11/15 10:55:31;;;;;;;2.33;0.80;;;;;;;-147.20;100.00;63046.97;31530108;28;20111;-65
2023/11/15 11:11:25;;;;;;;1.98;0.75;;;;;;;-147.20;100.00;63046.97;31531596;28;20109;-63
2023/11/15 11:26:35;;;;;;;0.77;0.45;;;;;;;-147.20;100.00;63046.97;31539048;28;20056;-63
2023/11/15 11:41:37;;;;;;;0.57;0.50;;;;;;;-147.20;100.00;63046.97;31549412;28;20043;-63
2023/11/15 11:56:46;;;;;;;2.72;0.70;;;;;;;-147.20;100.00;63046.97;31548491;28;20061;-62
2023/11/15 12:11:47;;;;;;;4.05;0.93;;;;;;;-147.20;100.00;63046.97;31548364;28;20036;-63
2023/11/15 12:26:48;;;;;;;4.22;1.00;;;;;;;-147.20;100.00;63046.97;31545020;28;20037;-60
2023/11/15 12:41:50;;;;;;;2.28;1.00;;;;;;;-147.20;100.00;63046.97;31541077;28;20571;-61
2023/11/15 12:57:03;;;;;;;3.05;0.80;;;;;;;-147.20;100.00;63046.97;31541336;28;20470;-62
2023/11/15 13:12:04;;;;;;;0.97;0.80;;;;;;;-147.20;100.00;63046.97;31539973;28;20056;-62
2023/11/15 13:27:04;;;;;;;1.48;0.80;;;;;;;-147.20;100.00;63046.97;31536518;28;20106;-63
2023/11/15 13:42:07;;;;;;;2.22;1.25;;;;;;;-147.20;100.00;63046.97;31534055;28;20090;-61
2023/11/15 13:57:08;;;;;;;4.57;1.93;;;;;;;-147.20;100.00;63046.97;31534092;28;20060;-64
2023/11/15 14:12:10;;;;;;;3.28;1.40;;;;;;;-147.20;100.00;63046.97;31534440;28;20033;-64
2023/11/15 14:27:15;;;;;;;2.28;1.23;;;;;;;-147.20;100.00;63046.97;31534093;28;20444;-61
2023/11/15 14:42:16;;;;;;;2.90;1.40;;;;;;;-147.20;100.00;63046.97;31534492;28;20048;-62
2023/11/15 14:57:17;;;;;;;4.35;1.90;;;;;;;-147.20;100.00;63046.97;31545846;28;20502;-62
2023/11/15 15:12:22;;;;;;;3.05;1.60;;;;;;;-147.20;100.00;63046.97;31552743;28;20837;-61
2023/11/15 15:27:26;;;;;;;3.90;2.10;;;;;;;-147.20;100.00;63046.97;31551562;28;20037;-62
2023/11/15 15:42:27;;;;;;;4.15;1.60;;;;;;;-147.20;100.00;63046.97;31552258;28;20024;-61
2023/11/15 15:57:27;;;;;;;2.90;1.58;;;;;;;-147.20;100.00;63046.97;31550525;28;20057;-61
2023/11/15 16:12:28;;;;;;;3.72;1.70;;;;;;;-147.20;100.00;63046.97;31547916;28;20029;-62
2023/11/15 16:27:28;;;;;;;4.00;2.00;;;;;;;-147.20;100.00;63046.97;31546535;28;20482;-62
2023/11/15 16:42:29;;;;;;;4.57;1.35;;;;;;;-147.20;100.00;63046.97;31543098;28;25746;-65
2023/11/15 16:57:29;;;;;;;3.42;1.42;;;;;;;-147.20;100.00;63046.97;31543581;28;20084;-64
2023/11/15 17:12:30;;;;;;;4.07;1.83;;;;;;;-147.20;100.00;63046.97;31537551;28;20029;-64
2023/11/15 17:27:30;;;;;;;5.55;2.20;;;;;;;-147.20;100.00;63046.97;31538059;28;20040;-64
2023/11/15 17:42:30;;;;;;;5.55;2.65;;;;;;;-147.20;100.00;63046.97;31538589;28;20350;-67
2023/11/15 17:57:33;;;;;;;5.90;2.25;;;;;;;-147.20;100.00;63046.97;31536474;28;20633;-65
2023/11/15 18:12:34;;;;;;;4.85;2.70;;;;;;;-147.20;100.00;63046.97;31536046;28;20029;-65
2023/11/15 18:27:36;;;;;;;6.57;3.17;;;;;;;-147.20;100.00;63046.97;31532552;28;20351;-63
2023/11/15 18:42:40;;;;;;;5.10;2.70;;;;;;;-147.20;100.00;63046.97;31531788;28;20037;-65
2023/11/15 18:57:43;;;;;;;7.20;3.40;;;;;;;-147.20;100.00;63046.97;31531884;28;20375;-67
2023/11/15 19:12:45;;;;;;;6.73;3.27;;;;;;;-147.20;100.00;63046.97;31529374;28;20033;-67
2023/11/15 19:27:47;;;;;;;12.85;4.25;;;;;;;-147.20;100.00;63046.97;31510453;28;20033;-67
2023/11/15 19:42:48;;;;;;;7.25;3.85;;;;;;;-147.20;100.00;63046.97;31527446;28;20040;-66
2023/11/15 19:57:49;;;;;;;7.45;3.97;;;;;;;-147.20;100.00;63046.97;31535201;28;20071;-67
2023/11/15 20:12:49;;;;;;;7.50;3.60;;;;;;;-147.20;100.00;63046.97;31590855;28;20766;-66
2023/11/15 20:27:50;;;;;;;7.63;3.58;;;;;;;-147.20;100.00;63046.97;31581979;28;20032;-68
2023/11/15 20:42:52;;;;;;;6.75;3.88;;;;;;;-147.20;100.00;63046.97;31586038;28;20048;-67
2023/11/15 20:57:58;;;;;;;7.25;3.72;;;;;;;-147.20;100.00;63046.97;31534331;28;20044;-62
2023/11/15 21:12:59;;;;;;;8.57;4.05;;;;;;;-147.20;100.00;63046.97;31535709;28;20087;-68
2023/11/15 21:27:59;;;;;;;6.82;3.33;;;;;;;-147.20;100.00;63046.97;31532958;28;20060;-60
2023/11/15 21:43:00;;;;;;;10.18;4.72;;;;;;;-147.20;100.00;63046.97;31532523;28;20029;-62
2023/11/15 21:58:02;;;;;;;7.95;3.95;;;;;;;-147.20;100.00;63046.97;31465479;28;20452;-67
2023/11/15 22:13:03;;;;;;;12.35;4.15;;;;;;;-147.20;100.00;63046.97;31535022;28;20036;-61
2023/11/15 22:28:04;;;;;;;10.15;4.07;;;;;;;-147.20;100.00;63046.97;31538110;28;20406;-68
2023/11/15 22:43:04;;;;;;;9.20;4.10;;;;;;;-147.20;100.00;63046.97;31537212;28;20072;-67
2023/11/15 22:58:04;;;;;;;8.88;4.35;;;;;;;-147.20;100.00;63046.97;31535645;28;20049;-61
2023/11/15 23:13:05;;;;;;;6.75;4.13;;;;;;;-147.20;100.00;63046.97;31541280;28;20045;-62
2023/11/15 23:28:06;;;;;;;12.07;4.95;;;;;;;-147.20;100.00;63046.97;31552813;28;20028;-62
2023/11/15 23:43:07;;;;;;;10.77;5.18;;;;;;;-147.20;100.00;63046.97;31556099;28;20394;-62
2023/11/15 23:58:09;;;;;;;8.35;4.45;;;;;;;-147.20;100.00;63046.97;31553818;28;20052;-66
